Time;durP1;ratioP1;P1;durP2;ratioP2;P2;SDS_P1;SDS_P2;PMS_P1;PMS_P2;Temp;Humidity;BMP_temperature;BMP_pressure;BME280_temperature;BME280_humidity;BME280_pressure;Samples;Min_cycle;Max_cycle;Signal;HPM_P1;HPM_P2
2022/01/12 00:01:22;;;;;;;15.05;7.43;;;;;;;-0.64;100.00;103196.06;2568484;30;138268;-40
2022/01/12 00:03:50;;;;;;;;;;;;;;;-0.65;100.00;103201.50;2568936;30;138401;-40
2022/01/12 00:06:18;;;;;;;12.60;5.93;;;;;;;-0.62;100.00;103190.59;2568455;30;137344;-40
2022/01/12 00:08:48;;;;;;;;;;;;;;;-0.69;100.00;103192.72;2567198;30;139225;-40
2022/01/12 00:11:17;;;;;;;;;;;;;;;-0.74;100.00;103201.03;2569701;30;137967;-40
2022/01/12 00:13:45;;;;;;;;;;;;;;;-0.79;100.00;103192.38;2568598;30;139312;-40
2022/01/12 00:16:13;;;;;;;18.42;7.22;;;;;;;-0.82;100.00;103183.63;2569214;30;137224;-40
2022/01/12 00:18:42;;;;;;;;;;;;;;;-0.80;100.00;103182.56;2568463;30;139194;-40
2022/01/12 00:21:11;;;;;;;12.73;6.60;;;;;;;-0.73;100.00;103186.69;2568679;30;137099;-40
2022/01/12 00:23:40;;;;;;;14.32;7.05;;;;;;;-0.75;100.00;103191.25;2568288;30;138245;-40
2022/01/12 00:26:24;;;;;;;16.67;7.70;;;;;;;-0.81;100.00;103190.69;2566180;30;136909;-40
2022/01/12 00:34:36;;;;;;;14.40;7.22;;;;;;;-0.91;100.00;103171.53;2567813;30;139443;-40
2022/01/12 00:37:04;;;;;;;;;;;;;;;-0.80;100.00;103193.28;2567860;30;137811;-40
2022/01/12 00:39:32;;;;;;;14.32;7.03;;;;;;;-0.80;100.00;103195.13;2568514;30;138444;-40
2022/01/12 00:42:00;;;;;;;;;;;;;;;-0.77;100.00;103203.88;2567434;30;137484;-40
2022/01/12 00:44:35;;;;;;;15.77;7.00;;;;;;;-0.79;100.00;103219.19;2577703;30;139146;-39
2022/01/12 00:47:03;;;;;;;16.98;7.35;;;;;;;-0.79;100.00;103226.34;2570038;30;136959;-40
2022/01/12 00:49:30;;;;;;;17.52;7.60;;;;;;;-0.79;100.00;103229.91;2569630;30;137977;-40
2022/01/12 00:51:58;;;;;;;21.17;7.93;;;;;;;-0.82;100.00;103229.19;2568421;30;137397;-41
2022/01/12 00:54:26;;;;;;;14.07;7.75;;;;;;;-0.83;100.00;103222.94;2567313;30;138313;-40
2022/01/12 00:56:54;;;;;;;15.70;8.35;;;;;;;-0.87;100.00;103206.16;2570570;30;136714;-40
2022/01/12 00:59:22;;;;;;;;;;;;;;;-0.91;100.00;103201.91;2569609;30;140560;-40
2022/01/12 01:01:55;;;;;;;15.07;7.75;;;;;;;-0.92;100.00;103207.34;2569909;30;138231;-39
2022/01/12 01:04:26;;;;;;;15.77;7.63;;;;;;;-0.92;100.00;103207.34;2568069;30;139764;-40
2022/01/12 01:06:55;;;;;;;16.35;7.43;;;;;;;-0.98;100.00;103213.03;2568324;30;140336;-40
2022/01/12 01:09:23;;;;;;;15.10;7.50;;;;;;;-0.99;100.00;103222.84;2568718;30;140528;-40
2022/01/12 01:11:54;;;;;;;15.65;8.15;;;;;;;-1.00;100.00;103236.34;2570480;30;139023;-40
2022/01/12 01:14:36;;;;;;;;;;;;;;;-1.03;100.00;103246.28;2567451;30;141113;-42
2022/01/12 01:25:49;;;;;;;13.70;7.13;;;;;;;-0.81;100.00;103269.31;2569103;30;138486;-39
2022/01/12 01:28:20;;;;;;;13.95;7.50;;;;;;;-0.80;100.00;103271.03;2567385;30;137401;-40
2022/01/12 01:30:47;;;;;;;16.13;7.43;;;;;;;-0.75;100.00;103269.00;2568501;30;140432;-39
2022/01/12 01:33:20;;;;;;;13.85;7.30;;;;;;;-0.71;100.00;103279.59;2569407;30;137606;-40
2022/01/12 01:35:54;;;;;;;14.73;7.30;;;;;;;-0.71;100.00;103296.53;2570432;30;139722;-40
2022/01/12 01:38:24;;;;;;;13.43;7.38;;;;;;;-0.70;100.00;103292.88;2567062;30;138251;-40
2022/01/12 01:40:56;;;;;;;15.10;7.18;;;;;;;-0.68;100.00;103288.31;2566291;30;140142;-40
2022/01/12 01:54:22;;;;;;;13.20;7.78;;;;;;;-0.59;100.00;103295.03;2569872;30;138245;-40
2022/01/12 01:56:51;;;;;;;13.95;7.38;;;;;;;-0.59;100.00;103305.75;2568988;30;139211;-40
2022/01/12 01:59:18;;;;;;;;;;;;;;;-0.59;100.00;103305.75;2568777;30;139388;-40
2022/01/12 02:01:48;;;;;;;;;;;;;;;-0.47;100.00;103312.31;2570305;30;140584;-39
2022/01/12 02:04:16;;;;;;;13.48;6.85;;;;;;;-0.45;100.00;103310.41;2569390;30;139442;-40
2022/01/12 02:06:44;;;;;;;16.63;7.85;;;;;;;-0.45;100.00;103311.31;2571935;30;140839;-40
2022/01/12 02:09:12;;;;;;;13.98;7.10;;;;;;;-0.46;100.00;103308.69;2569224;30;137472;-41
2022/01/12 02:11:53;;;;;;;14.80;7.50;;;;;;;-0.43;100.00;103295.09;2569083;30;139092;-39
2022/01/12 02:14:26;;;;;;;15.32;7.65;;;;;;;-0.40;100.00;103278.84;2567147;30;138847;-39
2022/01/12 02:17:00;;;;;;;16.88;7.32;;;;;;;-0.39;100.00;103274.38;2568557;30;138332;-39
2022/01/12 02:36:29;;;;;;;14.02;7.00;;;;;;;-0.36;100.00;103250.06;2567829;30;137199;-40
2022/01/12 02:41:45;;;;;;;12.65;6.95;;;;;;;-0.47;100.00;103258.66;2568175;30;137830;-40
2022/01/12 02:55:09;;;;;;;13.43;7.10;;;;;;;-0.60;100.00;103282.56;2569862;30;139171;-40
2022/01/12 02:57:37;;;;;;;14.25;7.40;;;;;;;-0.59;100.00;103270.91;2568756;30;138470;-40
2022/01/12 03:00:10;;;;;;;14.23;7.00;;;;;;;-0.59;100.00;103270.91;2568648;30;138560;-40
2022/01/12 03:02:41;;;;;;;15.43;7.15;;;;;;;-0.56;100.00;103257.31;2570465;30;137461;-39
2022/01/12 03:05:33;;;;;;;13.65;6.80;;;;;;;-0.53;100.00;103262.56;2570113;30;138238;-41
2022/01/12 03:08:10;;;;;;;13.10;6.78;;;;;;;-0.49;100.00;103257.88;2566451;30;137056;-40
2022/01/12 03:10:39;;;;;;;12.20;6.57;;;;;;;-0.46;100.00;103252.34;2569287;30;140748;-41
2022/01/12 03:13:07;;;;;;;;;;;;;;;-0.41;100.00;103247.59;2568430;30;137982;-40
2022/01/12 03:15:40;;;;;;;12.43;6.68;;;;;;;-0.39;100.00;103252.91;2568588;30;138249;-40
2022/01/12 03:18:11;;;;;;;13.15;6.47;;;;;;;-0.41;100.00;103254.81;2568138;30;138647;-40
2022/01/12 03:20:40;;;;;;;11.43;6.05;;;;;;;-0.39;100.00;103248.44;2568417;30;139645;-41
2022/01/12 03:23:09;;;;;;;13.40;6.63;;;;;;;-0.42;100.00;103255.75;2568338;30;140273;-40
2022/01/12 03:25:37;;;;;;;15.20;7.07;;;;;;;-0.37;100.00;103257.25;2572096;30;139310;-39
2022/01/12 03:28:07;;;;;;;;;;;;;;;-0.38;100.00;103260.00;2570527;30;138294;-39
2022/01/12 03:30:48;;;;;;;13.80;6.55;;;;;;;-0.35;100.00;103257.16;2568571;30;138529;-40
2022/01/12 03:33:35;;;;;;;13.48;6.70;;;;;;;-0.33;100.00;103268.69;2567665;30;138521;-40
2022/01/12 03:36:26;;;;;;;11.93;5.97;;;;;;;-0.27;100.00;103267.50;2568334;30;139824;-40
2022/01/12 03:38:59;;;;;;;15.02;7.32;;;;;;;-0.30;100.00;103276.56;2567485;30;139462;-40
2022/01/12 03:41:29;;;;;;;11.65;6.45;;;;;;;-0.28;100.00;103279.19;2568313;30;137655;-40
2022/01/12 03:43:59;;;;;;;12.38;6.72;;;;;;;-0.28;100.00;103292.59;2568001;30;140824;-40
2022/01/12 03:46:44;;;;;;;11.60;6.40;;;;;;;-0.28;100.00;103298.81;2570568;30;138437;-42
2022/01/12 03:49:15;;;;;;;13.23;6.90;;;;;;;-0.24;100.00;103310.25;2568857;30;138490;-40
2022/01/12 03:51:44;;;;;;;13.30;6.20;;;;;;;-0.26;100.00;103305.00;2568832;30;140115;-40
2022/01/12 03:54:13;;;;;;;13.52;6.90;;;;;;;-0.25;100.00;103304.03;2570257;30;139953;-37
2022/01/12 03:56:41;;;;;;;12.88;6.47;;;;;;;-0.24;100.00;103305.78;2568255;30;139683;-41
2022/01/12 03:59:09;;;;;;;15.52;7.47;;;;;;;-0.21;100.00;103296.69;2570885;30;136867;-44
2022/01/12 04:01:38;;;;;;;13.80;7.10;;;;;;;-0.20;100.00;103291.25;2570078;30;140224;-40
2022/01/12 04:04:19;;;;;;;13.18;6.43;;;;;;;-0.19;100.00;103303.72;2570760;30;138223;-40
2022/01/12 04:09:45;;;;;;;13.77;7.15;;;;;;;-0.17;100.00;103301.81;2569854;30;137487;-40
2022/01/12 04:12:15;;;;;;;15.50;7.35;;;;;;;-0.17;100.00;103303.63;2568013;30;138669;-40
2022/01/12 04:14:44;;;;;;;13.00;6.40;;;;;;;-0.17;100.00;103304.50;2567917;30;139321;-40
2022/01/12 04:17:13;;;;;;;13.95;7.18;;;;;;;-0.13;100.00;103304.34;2566222;30;139788;-40
2022/01/12 04:19:44;;;;;;;13.77;6.97;;;;;;;-0.11;100.00;103299.75;2570557;30;139529;-40
2022/01/12 04:24:59;;;;;;;13.15;6.80;;;;;;;0.03;100.00;103310.63;2567559;30;139886;-40
2022/01/12 04:27:27;;;;;;;12.38;6.60;;;;;;;0.04;100.00;103298.06;2571883;30;140022;-40
2022/01/12 04:29:55;;;;;;;12.65;7.00;;;;;;;0.08;100.00;103295.16;2568768;30;137817;-39
2022/01/12 04:32:24;;;;;;;;;;;;;;;0.07;100.00;103287.16;2570858;30;139388;-41
2022/01/12 04:34:52;;;;;;;;;;;;;;;0.07;100.00;103295.22;2571719;30;138573;-37
2022/01/12 04:37:20;;;;;;;10.75;5.85;;;;;;;0.16;100.00;103299.22;2570130;30;138963;-40
2022/01/12 04:39:48;;;;;;;;;;;;;;;0.10;100.00;103295.03;2571020;30;139363;-40
2022/01/12 04:42:16;;;;;;;13.13;6.32;;;;;;;0.14;100.00;103294.81;2570838;30;140715;-40
2022/01/12 04:44:47;;;;;;;;;;;;;;;0.12;100.00;103291.34;2569075;30;138360;-39
2022/01/12 04:47:28;;;;;;;11.45;6.25;;;;;;;0.14;100.00;103294.81;2569880;30;139737;-40
2022/01/12 04:49:59;;;;;;;11.82;6.40;;;;;;;0.12;100.00;103310.13;2569052;30;137729;-40
2022/01/12 04:52:27;;;;;;;12.98;6.15;;;;;;;0.17;100.00;103311.69;2571100;30;138888;-40
2022/01/12 04:54:55;;;;;;;15.25;6.82;;;;;;;0.16;100.00;103316.22;2570034;30;137698;-40
2022/01/12 04:57:25;;;;;;;12.50;6.65;;;;;;;0.20;100.00;103317.78;2570207;30;140458;-40
2022/01/12 05:00:06;;;;;;;11.15;5.88;;;;;;;0.21;100.00;103334.75;2570651;30;137898;-40
2022/01/12 05:08:36;;;;;;;13.00;6.28;;;;;;;0.18;100.00;103346.53;2570982;30;140867;-40
2022/01/12 05:13:57;;;;;;;11.63;6.55;;;;;;;0.20;100.00;103333.00;2568650;30;138289;-40
2022/01/12 05:16:26;;;;;;;12.35;6.70;;;;;;;0.18;100.00;103330.44;2566912;30;137705;-40
2022/01/12 05:18:55;;;;;;;11.27;7.20;;;;;;;0.20;100.00;103330.31;2567676;30;139661;-40
2022/01/12 05:21:24;;;;;;;12.50;6.45;;;;;;;0.19;100.00;103326.78;2570558;30;136877;-40
2022/01/12 05:23:53;;;;;;;13.30;6.93;;;;;;;0.17;100.00;103320.63;2567056;30;141264;-40
2022/01/12 05:26:21;;;;;;;11.50;6.55;;;;;;;0.20;100.00;103320.47;2569509;30;137423;-39
2022/01/12 05:28:49;;;;;;;;;;;;;;;0.24;100.00;103323.84;2571166;30;138257;-40
2022/01/12 05:31:17;;;;;;;13.93;6.50;;;;;;;0.24;100.00;103319.34;2567029;30;138682;-40
2022/01/12 05:33:48;;;;;;;15.50;6.82;;;;;;;0.21;100.00;103327.56;2567085;30;140567;-40
2022/01/12 05:36:18;;;;;;;15.68;7.25;;;;;;;0.20;100.00;103323.16;2570339;30;138204;-40
2022/01/12 05:38:48;;;;;;;11.02;5.97;;;;;;;0.20;100.00;103324.94;2568898;30;138391;-40
2022/01/12 05:41:17;;;;;;;12.55;6.75;;;;;;;0.18;100.00;103330.44;2569757;30;138960;-40
2022/01/12 05:43:47;;;;;;;14.45;7.07;;;;;;;0.17;100.00;103325.13;2568563;30;140876;-40
2022/01/12 05:46:16;;;;;;;13.07;6.78;;;;;;;0.17;100.00;103322.44;2570055;30;139255;-40
2022/01/12 05:51:40;;;;;;;13.25;6.65;;;;;;;0.17;100.00;103330.50;2568927;30;140057;-40
2022/01/12 05:54:08;;;;;;;11.23;6.55;;;;;;;0.18;100.00;103332.22;2568849;30;139715;-40
2022/01/12 05:56:37;;;;;;;13.18;6.50;;;;;;;0.18;100.00;103324.16;2569155;30;139126;-40
2022/01/12 05:59:05;;;;;;;13.10;6.82;;;;;;;0.20;100.00;103325.84;2570062;30;140464;-40
2022/01/12 06:01:33;;;;;;;14.18;6.78;;;;;;;0.24;100.00;103308.59;2567360;30;139887;-40
2022/01/12 06:04:01;;;;;;;12.38;6.72;;;;;;;0.24;100.00;103311.28;2570714;30;140431;-40
2022/01/12 06:06:29;;;;;;;;;;;;;;;0.24;100.00;103310.41;2568510;30;139430;-41
2022/01/12 06:08:58;;;;;;;11.02;6.45;;;;;;;0.21;100.00;103311.47;2569912;30;139609;-39
2022/01/12 06:11:27;;;;;;;11.85;6.93;;;;;;;0.22;100.00;103312.31;2568709;30;140010;-40
2022/01/12 06:13:57;;;;;;;14.15;7.38;;;;;;;0.29;100.00;103303.00;2569378;30;138402;-40
2022/01/12 06:16:29;;;;;;;14.55;7.55;;;;;;;0.34;100.00;103306.28;2570020;30;138781;-40
2022/01/12 06:18:57;;;;;;;13.15;7.10;;;;;;;0.30;100.00;103311.91;2568290;30;140979;-40
2022/01/12 06:21:27;;;;;;;11.35;6.45;;;;;;;0.32;100.00;103323.44;2569056;30;139048;-39
2022/01/12 06:24:03;;;;;;;11.07;6.53;;;;;;;0.32;100.00;103313.56;2569684;30;139854;-40
2022/01/12 06:26:31;;;;;;;13.73;7.13;;;;;;;0.32;100.00;103313.56;2569443;30;139947;-39
2022/01/12 06:31:42;;;;;;;10.93;6.65;;;;;;;0.33;100.00;103338.59;2569420;30;138033;-39
2022/01/12 06:34:10;;;;;;;12.98;7.20;;;;;;;0.35;100.00;103345.63;2569062;30;138394;-39
2022/01/12 06:36:37;;;;;;;;;;;;;;;0.35;100.00;103344.75;2569753;30;137688;-40
2022/01/12 06:39:11;;;;;;;12.93;7.18;;;;;;;0.36;100.00;103343.78;2567079;30;139122;-40
2022/01/12 06:41:40;;;;;;;14.30;6.80;;;;;;;0.34;100.00;103343.00;2570443;30;138155;-44
2022/01/12 06:44:08;;;;;;;13.65;7.05;;;;;;;0.35;100.00;103337.56;2567883;30;138617;-40
2022/01/12 12:47:20;;;;;;;48.97;16.15;;;;;;;2.34;100.00;103583.88;2566619;30;137810;-39
2022/01/12 12:49:57;;;;;;;49.17;19.08;;;;;;;2.36;100.00;103585.50;2568605;30;139009;-40
2022/01/12 12:52:26;;;;;;;53.75;18.67;;;;;;;2.39;100.00;103579.06;2569204;30;137545;-39
2022/01/12 12:54:57;;;;;;;46.50;17.92;;;;;;;2.42;100.00;103569.00;2567110;30;137518;-39
2022/01/12 12:57:27;;;;;;;53.70;19.55;;;;;;;2.41;100.00;103578.03;2567648;30;138328;-39
2022/01/12 13:00:27;;;;;;;48.53;17.58;;;;;;;2.41;100.00;103572.66;2568019;30;138241;-39
2022/01/12 13:02:58;;;;;;;53.60;19.27;;;;;;;2.46;100.00;103577.75;2566853;30;137585;-39
2022/01/12 13:05:41;;;;;;;56.92;20.00;;;;;;;2.42;100.00;103577.06;2566008;30;137731;-39
2022/01/12 13:08:10;;;;;;;57.97;20.38;;;;;;;2.43;100.00;103580.63;2567152;30;138419;-39
2022/01/12 13:10:38;;;;;;;48.67;19.58;;;;;;;2.47;100.00;103570.53;2568465;30;138267;-39
2022/01/12 13:13:09;;;;;;;53.17;20.58;;;;;;;2.48;100.00;103561.50;2566796;30;136926;-39
2022/01/12 13:15:43;;;;;;;53.25;19.42;;;;;;;2.50;100.00;103552.34;2568538;30;139299;-39
2022/01/12 13:18:22;;;;;;;60.50;19.67;;;;;;;2.53;100.00;103554.00;2567670;30;138334;-39
2022/01/12 13:21:08;;;;;;;60.72;20.45;;;;;;;2.51;100.00;103551.38;2567496;30;138966;-39
2022/01/12 13:23:46;;;;;;;57.47;20.33;;;;;;;2.52;100.00;103550.44;2568904;30;138431;-39
2022/01/12 13:26:22;;;;;;;49.03;18.90;;;;;;;2.55;100.00;103563.75;2568149;30;138513;-39
2022/01/12 13:28:50;;;;;;;52.28;19.58;;;;;;;2.57;100.00;103550.16;2567735;30;138322;-40
2022/01/12 13:31:21;;;;;;;55.05;19.70;;;;;;;2.54;100.00;103558.44;2567823;30;138427;-39
2022/01/12 13:33:52;;;;;;;58.22;21.40;;;;;;;2.54;100.00;103555.72;2567937;30;136963;-39
2022/01/12 13:36:29;;;;;;;48.90;18.40;;;;;;;2.55;100.00;103555.66;2567497;30;138591;-39
2022/01/12 13:39:00;;;;;;;52.30;20.67;;;;;;;2.58;100.00;103560.84;2568217;30;138250;-39
2022/01/12 13:41:33;;;;;;;48.53;19.83;;;;;;;2.61;100.00;103557.09;2567875;30;138554;-39
2022/01/12 13:44:07;;;;;;;57.08;20.48;;;;;;;2.65;100.00;103560.47;2567984;30;138217;-39
2022/01/12 13:46:38;;;;;;;54.42;20.65;;;;;;;2.64;100.00;103561.44;2568013;30;137431;-39
2022/01/12 13:51:43;;;;;;;46.30;18.35;;;;;;;2.48;100.00;103556.09;2564876;30;139070;-39
2022/01/12 13:54:15;;;;;;;52.50;19.83;;;;;;;2.48;100.00;103564.19;2567589;30;139170;-39
2022/01/12 13:56:46;;;;;;;51.08;19.80;;;;;;;2.52;100.00;103557.66;2568732;30;137231;-39
2022/01/12 13:59:18;;;;;;;61.92;21.35;;;;;;;2.59;100.00;103548.22;2567477;30;138315;-39
2022/01/12 14:01:47;;;;;;;49.17;19.75;;;;;;;2.60;100.00;103544.56;2565004;30;137314;-39
2022/01/12 14:04:39;;;;;;;51.90;21.50;;;;;;;2.61;100.00;103551.69;2568304;30;136905;-39
2022/01/12 14:07:10;;;;;;;51.45;20.95;;;;;;;2.60;100.00;103563.44;2568835;30;139125;-39
2022/01/12 14:09:41;;;;;;;58.45;20.98;;;;;;;2.64;100.00;103573.06;2567626;30;137573;-39
2022/01/12 14:12:15;;;;;;;56.60;20.05;;;;;;;2.64;100.00;103569.53;2566295;30;138384;-39
2022/01/12 14:14:48;;;;;;;60.30;21.83;;;;;;;2.66;100.00;103573.88;2566837;30;137038;-39
2022/01/12 14:17:38;;;;;;;52.78;20.20;;;;;;;2.61;100.00;103565.16;2567064;30;138460;-39
2022/01/12 14:20:08;;;;;;;53.95;21.02;;;;;;;2.59;100.00;103575.19;2568022;30;137553;-39
2022/01/12 14:22:48;;;;;;;51.58;20.70;;;;;;;2.57;100.00;103572.59;2567510;30;138351;-39
2022/01/12 14:25:18;;;;;;;57.72;22.15;;;;;;;2.55;100.00;103584.41;2567449;30;136819;-39
2022/01/12 14:27:56;;;;;;;59.50;21.48;;;;;;;2.55;100.00;103582.59;2565706;30;138138;-39
2022/01/12 14:30:24;;;;;;;61.53;20.88;;;;;;;2.58;100.00;103577.03;2568290;30;137561;-40
2022/01/12 14:32:52;;;;;;;57.45;22.38;;;;;;;2.56;100.00;103570.84;2568172;30;138289;-39
2022/01/12 14:35:23;;;;;;;56.97;21.60;;;;;;;2.53;100.00;103578.25;2567708;30;137714;-39
2022/01/12 14:37:53;;;;;;;57.28;22.35;;;;;;;2.51;100.00;103572.94;2568983;30;138339;-39
2022/01/12 14:40:21;;;;;;;64.18;23.25;;;;;;;2.49;100.00;103569.47;2567084;30;137442;-39
2022/01/12 14:43:02;;;;;;;55.58;22.45;;;;;;;2.49;100.00;103574.00;2566995;30;137240;-39
2022/01/12 14:45:33;;;;;;;56.80;21.80;;;;;;;2.47;100.00;103570.53;2567309;30;137626;-39
2022/01/12 14:48:05;;;;;;;59.60;22.60;;;;;;;2.44;100.00;103571.56;2567211;30;138575;-39
2022/01/12 14:50:34;;;;;;;57.17;21.33;;;;;;;2.44;100.00;103582.34;2566202;30;137698;-39
2022/01/12 14:53:05;;;;;;;60.50;21.40;;;;;;;2.44;100.00;103574.28;2566276;30;139061;-39
2022/01/12 14:55:54;;;;;;;58.78;20.75;;;;;;;2.44;100.00;103579.66;2565166;30;138343;-39
2022/01/12 14:58:23;;;;;;;58.60;22.17;;;;;;;2.43;100.00;103576.13;2567730;30;138046;-39
2022/01/12 15:00:51;;;;;;;60.03;21.40;;;;;;;2.42;100.00;103568.09;2567444;30;137676;-39
2022/01/12 15:03:22;;;;;;;58.03;22.92;;;;;;;2.42;100.00;103576.19;2568724;30;137325;-39
2022/01/12 15:05:51;;;;;;;55.92;22.45;;;;;;;2.40;100.00;103575.41;2567635;30;136764;-39
2022/01/12 15:08:22;;;;;;;56.22;21.63;;;;;;;2.38;100.00;103580.88;2565224;30;139228;-39
2022/01/12 15:10:51;;;;;;;58.30;22.08;;;;;;;2.37;100.00;103583.69;2565096;30;137807;-39
2022/01/12 15:13:25;;;;;;;53.42;21.10;;;;;;;2.37;100.00;103570.22;2567818;30;139115;-39
2022/01/12 15:15:56;;;;;;;52.08;20.48;;;;;;;2.36;100.00;103574.72;2566405;30;137513;-39
2022/01/12 15:18:25;;;;;;;53.25;21.42;;;;;;;2.36;100.00;103579.25;2568724;30;137137;-39
2022/01/12 15:20:57;;;;;;;48.63;19.13;;;;;;;2.35;100.00;103582.91;2567564;30;137586;-39
2022/01/12 15:23:25;;;;;;;48.20;19.15;;;;;;;2.33;100.00;103588.38;2568046;30;139070;-39
2022/01/12 15:25:55;;;;;;;49.47;18.83;;;;;;;2.33;100.00;103577.59;2566904;30;137638;-39
2022/01/12 15:28:23;;;;;;;47.92;20.85;;;;;;;2.32;100.00;103583.94;2569157;30;138156;-39
2022/01/12 15:30:51;;;;;;;47.55;19.38;;;;;;;2.31;100.00;103579.50;2566712;30;138288;-39
2022/01/12 15:33:19;;;;;;;;;;;;;;;2.32;100.00;103581.25;2569378;30;138633;-39
2022/01/12 15:35:47;;;;;;;48.58;18.08;;;;;;;2.32;100.00;103581.25;2568617;30;136677;-39
2022/01/12 15:38:15;;;;;;;;;;;;;;;2.30;100.00;103581.34;2569612;30;138331;-39
2022/01/12 15:40:44;;;;;;;40.22;15.25;;;;;;;2.28;100.00;103572.50;2567364;30;137386;-39
2022/01/12 15:43:13;;;;;;;34.08;14.77;;;;;;;2.25;100.00;103582.59;2568361;30;138308;-39
2022/01/12 15:45:40;;;;;;;39.42;15.32;;;;;;;2.22;100.00;103582.75;2568160;30;137756;-39
2022/01/12 15:48:12;;;;;;;;;;;;;;;2.19;100.00;103585.63;2568295;30;137726;-39
2022/01/12 15:50:41;;;;;;;30.17;13.05;;;;;;;2.16;100.00;103589.38;2568692;30;137133;-39
2022/01/12 15:53:08;;;;;;;32.28;13.75;;;;;;;2.14;100.00;103605.63;2568587;30;138287;-39
2022/01/12 15:55:36;;;;;;;;;;;;;;;2.14;100.00;103602.94;2567601;30;137411;-39
2022/01/12 15:58:05;;;;;;;32.53;13.73;;;;;;;2.14;100.00;103602.06;2569463;30;138255;-39
2022/01/12 16:00:35;;;;;;;38.60;14.95;;;;;;;2.14;100.00;103602.06;2568327;30;137877;-39
2022/01/12 16:03:04;;;;;;;31.10;13.50;;;;;;;2.13;100.00;103603.00;2568938;30;138288;-39
2022/01/12 16:05:33;;;;;;;28.88;12.75;;;;;;;2.12;100.00;103604.84;2566957;30;137742;-39
2022/01/12 16:08:01;;;;;;;31.45;13.30;;;;;;;2.09;100.00;103609.53;2568188;30;138371;-39
2022/01/12 16:10:30;;;;;;;29.95;13.30;;;;;;;2.06;100.00;103615.97;2567589;30;136928;-39
2022/01/12 16:12:59;;;;;;;32.22;14.13;;;;;;;2.04;100.00;103623.25;2567573;30;137325;-39
2022/01/12 16:15:47;;;;;;;29.73;14.27;;;;;;;2.03;100.00;103612.59;2568786;30;138178;-39
2022/01/12 16:18:15;;;;;;;29.58;13.85;;;;;;;2.03;100.00;103616.13;2568002;30;138192;-39
2022/01/12 16:20:45;;;;;;;28.08;12.95;;;;;;;2.07;100.00;103624.91;2567771;30;138299;-39
2022/01/12 16:23:13;;;;;;;;;;;;;;;2.06;100.00;103624.03;2568759;30;137325;-39
2022/01/12 16:25:41;;;;;;;29.67;12.73;;;;;;;1.97;100.00;103624.56;2568063;30;137779;-39
2022/01/12 16:28:09;;;;;;;;;;;;;;;2.05;100.00;103619.59;2568011;30;138684;-40
2022/01/12 16:30:53;;;;;;;30.13;12.23;;;;;;;2.04;100.00;103631.34;2567773;30;136973;-39
2022/01/12 16:33:23;;;;;;;30.27;13.50;;;;;;;2.05;100.00;103629.53;2567998;30;139067;-39
2022/01/12 16:35:52;;;;;;;27.75;12.25;;;;;;;2.05;100.00;103641.16;2567732;30;137706;-39
2022/01/12 16:38:20;;;;;;;30.55;13.27;;;;;;;2.04;100.00;103639.41;2568030;30;137882;-39
2022/01/12 16:40:51;;;;;;;29.15;12.75;;;;;;;2.04;100.00;103638.56;2567852;30;137418;-39
2022/01/12 16:43:20;;;;;;;32.65;13.40;;;;;;;2.02;100.00;103646.72;2567484;30;137366;-39
2022/01/12 16:45:49;;;;;;;33.45;14.25;;;;;;;2.00;100.00;103645.94;2567987;30;139468;-39
2022/01/12 16:48:18;;;;;;;30.75;13.48;;;;;;;2.00;100.00;103651.31;2568339;30;138977;-39
2022/01/12 16:50:46;;;;;;;31.70;13.02;;;;;;;1.99;100.00;103658.56;2567030;30;138723;-40
2022/01/12 16:53:14;;;;;;;;;;;;;;;1.99;100.00;103663.06;2568112;30;138346;-39
2022/01/12 16:55:42;;;;;;;33.60;13.82;;;;;;;1.98;100.00;103667.56;2568489;30;137259;-39
2022/01/12 16:58:10;;;;;;;28.77;13.52;;;;;;;1.99;100.00;103665.75;2569204;30;138447;-39
2022/01/12 17:00:38;;;;;;;28.90;13.43;;;;;;;1.98;100.00;103664.00;2568914;30;137226;-40
2022/01/12 17:03:07;;;;;;;28.77;12.20;;;;;;;1.98;100.00;103669.41;2568857;30;136808;-40
2022/01/12 17:05:35;;;;;;;26.45;12.98;;;;;;;1.98;100.00;103664.00;2567387;30;138358;-39
2022/01/12 17:08:03;;;;;;;27.98;12.40;;;;;;;1.97;100.00;103659.59;2568596;30;138456;-40
2022/01/12 17:10:31;;;;;;;28.42;12.07;;;;;;;1.96;100.00;103655.16;2568015;30;138743;-39
2022/01/12 17:13:00;;;;;;;;;;;;;;;1.99;100.00;103646.91;2568048;30;139072;-39
2022/01/12 17:15:48;;;;;;;27.23;12.15;;;;;;;1.90;100.00;103631.25;2568386;30;137071;-39
2022/01/12 17:18:39;;;;;;;25.60;12.00;;;;;;;1.98;100.00;103637.94;2567242;30;137419;-39
2022/01/12 17:21:09;;;;;;;29.77;13.00;;;;;;;2.05;100.00;103645.69;2567228;30;137264;-39
2022/01/12 17:24:11;;;;;;;29.17;13.38;;;;;;;2.05;100.00;103638.47;2568634;30;139075;-39
2022/01/12 17:26:42;;;;;;;27.52;12.93;;;;;;;2.02;100.00;103649.41;2569802;30;136941;-39
2022/01/12 17:29:16;;;;;;;28.33;12.13;;;;;;;2.02;100.00;103652.09;2566657;30;138221;-39
2022/01/12 17:31:46;;;;;;;25.85;12.40;;;;;;;2.01;100.00;103644.97;2567547;30;137778;-39
2022/01/12 17:34:17;;;;;;;27.23;12.20;;;;;;;2.04;100.00;103649.34;2568652;30;137842;-39
2022/01/12 17:37:02;;;;;;;27.75;12.43;;;;;;;2.03;100.00;103645.75;2567665;30;138615;-39
2022/01/12 17:39:39;;;;;;;27.67;12.40;;;;;;;2.03;100.00;103658.38;2567557;30;139068;-39
2022/01/12 17:42:13;;;;;;;32.90;13.32;;;;;;;2.00;100.00;103662.09;2568740;30;137405;-39
2022/01/12 17:44:47;;;;;;;27.25;12.20;;;;;;;1.98;100.00;103664.88;2565610;30;139348;-39
2022/01/12 17:47:19;;;;;;;31.02;12.57;;;;;;;1.96;100.00;103665.91;2568772;30;137553;-39
2022/01/12 17:50:08;;;;;;;25.42;12.43;;;;;;;1.97;100.00;103681.13;2566686;30;138325;-39
2022/01/12 17:52:45;;;;;;;31.90;12.07;;;;;;;1.98;100.00;103680.16;2567908;30;136805;-39
2022/01/12 17:55:22;;;;;;;28.85;11.88;;;;;;;1.99;100.00;103676.50;2568511;30;138388;-39
2022/01/12 17:57:51;;;;;;;31.42;12.75;;;;;;;1.99;100.00;103677.41;2568092;30;138498;-39
2022/01/12 18:00:23;;;;;;;27.88;12.50;;;;;;;2.00;100.00;103687.22;2568173;30;138184;-39
2022/01/12 18:02:51;;;;;;;29.58;12.65;;;;;;;1.98;100.00;103688.25;2566662;30;137530;-39
2022/01/12 18:05:20;;;;;;;27.17;11.23;;;;;;;1.96;100.00;103699.09;2568804;30;138436;-39
2022/01/12 18:07:48;;;;;;;;;;;;;;;1.96;100.00;103695.53;2567841;30;137385;-39
2022/01/12 18:10:18;;;;;;;27.57;11.93;;;;;;;1.97;100.00;103698.13;2566098;30;138556;-39
2022/01/12 18:12:46;;;;;;;28.73;12.23;;;;;;;1.98;100.00;103699.03;2567911;30;137643;-39
2022/01/12 18:15:15;;;;;;;31.60;12.63;;;;;;;1.98;100.00;103699.03;2566332;30;137333;-39
2022/01/12 18:17:46;;;;;;;31.70;13.82;;;;;;;2.06;100.00;103696.75;2566612;30;136747;-39
2022/01/12 18:20:14;;;;;;;29.10;12.75;;;;;;;2.11;100.00;103697.38;2568380;30;138170;-39
2022/01/12 18:22:47;;;;;;;26.85;11.98;;;;;;;2.05;100.00;103699.56;2566732;30;137963;-39
2022/01/12 18:25:16;;;;;;;;;;;;;;;1.97;100.00;103697.28;2567073;30;138286;-40
2022/01/12 18:27:45;;;;;;;25.02;11.73;;;;;;;1.93;100.00;103699.25;2567917;30;136643;-39
2022/01/12 18:30:13;;;;;;;22.98;11.63;;;;;;;1.91;100.00;103695.78;2568879;30;138340;-39
2022/01/12 18:32:41;;;;;;;27.77;11.73;;;;;;;1.95;100.00;103693.81;2566977;30;136844;-39
2022/01/12 18:35:09;;;;;;;;;;;;;;;1.94;100.00;103692.06;2568158;30;138296;-39
2022/01/12 18:37:37;;;;;;;23.35;10.93;;;;;;;1.92;100.00;103704.75;2567999;30;137015;-39
2022/01/12 18:40:16;;;;;;;;;;;;;;;1.96;100.00;103711.69;2568480;30;138983;-39
2022/01/12 18:42:44;;;;;;;26.55;11.80;;;;;;;1.94;100.00;103713.63;2568607;30;137874;-39
2022/01/12 18:45:13;;;;;;;28.85;11.52;;;;;;;1.90;100.00;103720.13;2567874;30;139084;-39
2022/01/12 18:47:41;;;;;;;29.50;12.13;;;;;;;1.90;100.00;103725.50;2581630;30;138119;-40
2022/01/12 18:50:09;;;;;;;26.33;12.00;;;;;;;1.87;100.00;103718.47;2569037;30;138299;-39